岡山グライダークラブ活動状況掲示板

岡山グライダークラブ
岡山市浦安南町639-1 岡南飛行場
 使用機:シャイベ式 SF25C型 ファルケ   JA2330
      ヴァレンティン式17E型 タイフーン  JA2342
 練習日:毎日曜日  クラブルーム:電話 086-265-1810
この掲示板は岡山グライダークラブの活動状況をお知らせする掲示板です。
!!!この掲示板は投稿規制をしています。!!!
クラブ関連各種情報は 岡山グライダークラブクラブルーム      を       .
  ブリーフイング情報は  岡山グライダークラブブリーフィングルーム  をご覧下さい。 .
※写真はクリックすると拡大して見ることが出来ます。
岡南飛行場へのアクセス等は 岡南飛行場管理事務所 をご覧ください。
クラブの ホームページ ができました。

!!!当クラブの見学等を希望される方は こちら をご覧ください!!!

 
01月25日
by OGC at 2021/1/24(日) 11:58:42 No.20210124113917  削除コメント
1024 x 768 x 72,983バイト
No.1

01月24日
本日のリモート参加者
  会員      14名
  その他      0名


@本日の様子






METAR
RJBK 240000Z 21003KT 10KM FEW005ST SCT020CU BKN050SC 07/07 Q1019 A3011
RJOB 240000Z VRB01KT 9000 -SHRA FEW004 SCT035 BKN045 06/05 Q1018
RJOT 240000Z 23003KT 4000 -SHRA BR FEW001 SCT008 BKN015 06/06 Q1019
RJOA 240000Z 02008KT 340V070 9999 -SHRA PRFG FEW000 SCT030 BKN040 06/05 Q1018
TAF
RJOB 232307Z 2400/2506 02008KT 9999 FEW015 BKN035
     TEMPO 2400/2402 3000 SHRA BR BCFG FEW000 SCT005 BKN008
RJOT 232310Z 2400/2506 24004KT 9999 FEW010 SCT020 BKN040
     BECMG 2400/2402 02005KT
     TEMPO 2400/2402 3000 SHRA BR FEW001 SCT003 BKN005
     BECMG 2409/2411 26005KT
     BECMG 2415/2418 15007KT
RJOA 232308Z 2400/2506 02007KT 8000 -SHRA FEW001 SCT008 BKN015
     BECMG 2409/2411 34006KT
     BECMG 2421/2500 08005KT

コロナ禍の新たな活動手段として、リモートブリーフィングを開催しました。リモートでまだ
慣れない所もありましたが、これなら十分意見交換できそうです。
次週も10:00〜リモートブリーフィングを開催しますので、今回、参加できなかった方も
クラブルームの掲示板の会員出席予定メモにZOOMへのリンク等を記載していますので参加くだ
さい。

集合 10:00 解散    11:00

本日のフライトはありません。


    << 戻る || ホームページ || 最新の掲示板へ